• Join FlightAware (Why Join?)
  • Login
  • US Flag 
09:28PM EDT


 

Airport Tracker/Info


-or-


 

Live Flight TrackerFlight Track Log ✈ UPS973 ✈ 20-Aug-2013 ✈ KPDX - KSDF

Flight Track Log - Related Links

Times and Time Zones

All times are in EDT time to prevent confusion due to time zone crossing. See the UPS973 flight status page for this flight to view local times or setup timezone preferences in your user account.

Time Position Orientation Groundspeed Altitude Reporting Facility
EDT Latitude Longitude Course Direction KTS MPH feet Rate Location/Type
10:11PM 45.7243 -122.4950 87° East 427 491 13,200  Level FlightAware ADS-B
10:11PM 45.7276 -122.4080 87° East 437 503 14,900 3,300 Climbing FlightAware ADS-B
10:12PM 45.7311 -122.3200 87° East 447 514 16,600 3,000 Climbing FlightAware ADS-B
10:12PM 45.7349 -122.2190 87° East 462 532 18,100 2,760 Climbing FlightAware ADS-B
10:13PM 45.7382 -122.1260 87° East 477 549 19,500 2,700 Climbing FlightAware ADS-B
10:13PM 45.7413 -122.0310 87° East 488 562 20,800 2,640 Climbing FlightAware ADS-B
10:14PM 45.7445 -121.9310 87° East 497 572 22,200 2,640 Climbing FlightAware ADS-B
10:14PM 45.7475 -121.8310 88° East 507 583 23,500 2,520 Climbing FlightAware ADS-B
10:15PM 45.7473 -121.7260 90° East 518 596 24,800 2,400 Climbing FlightAware ADS-B
10:15PM 45.7460 -121.6200 91° East 526 605 26,000 2,220 Climbing FlightAware ADS-B
10:16PM 45.7447 -121.5140 91° East 534 615 27,100 2,340 Climbing FlightAware ADS-B
10:16PM 45.7435 -121.3790 91° East 533 613 28,700 2,520 Climbing FlightAware ADS-B
10:17PM 45.7420 -121.2470 91° East 531 611 30,300 2,460 Climbing FlightAware
10:18PM 45.7414 -121.1510 90° East 531 611 31,400 2,160 Climbing FlightAware ADS-B
10:18PM 45.7403 -121.0380 91° East 530 610 32,500 1,980 Climbing FlightAware ADS-B
10:19PM 45.7392 -120.9320 91° East 529 609 33,500 1,920 Climbing FlightAware ADS-B
10:19PM 45.7376 -120.8000 91° East 529 609 34,700 1,020 Climbing FlightAware ADS-B
10:20PM 45.7350 -120.6270 91° East 529 609 35,000 180 Climbing FlightAware
10:21PM 45.7330 -120.5010 91° East 527 606 35,000  Level FlightAware
10:21PM 45.7320 -120.3750 91° East 525 604 35,000  Level FlightAware
10:22PM 45.7300 -120.2650 91° East 523 602 35,000  Level FlightAware
10:22PM 45.7270 -120.1410 92° East 522 601 35,000  Level FlightAware
10:23PM 45.7250 -120.0180 91° East 521 600 35,000  Level FlightAware
10:24PM 45.7220 -119.8920 92° East 521 600 35,000  Level FlightAware
10:24PM 45.7200 -119.7840 91° East 520 598 35,000  Level FlightAware
10:25PM 45.7170 -119.6590 92° East 520 598 35,000  Level FlightAware
10:25PM 45.7150 -119.5410 91° East 520 598 35,000  Level FlightAware
10:26PM 45.7110 -119.4120 92° East 521 600 35,000  Level FlightAware
10:27PM 45.7080 -119.2910 92° East 521 600 35,000  Level FlightAware
10:27PM 45.7050 -119.1790 92° East 521 600 35,000  Level FlightAware
10:28PM 45.7020 -119.0570 92° East 521 600 35,000  Level FlightAware
10:28PM 45.7000 -118.9310 91° East 523 602 35,000  Level FlightAware
10:29PM 45.7050 -118.8110 87° East 524 603 35,000  Level FlightAware
10:29PM 45.7110 -118.7040 85° East 524 603 35,000  Level FlightAware
10:30PM 45.7170 -118.5740 86° East 524 603 35,000  Level FlightAware
10:31PM 45.7240 -118.4490 85° East 524 603 35,000  Level FlightAware
10:31PM 45.7290 -118.3370 86° East 524 603 35,000  Level FlightAware
10:32PM 45.7350 -118.2120 86° East 524 603 35,000  Level FlightAware
10:32PM 45.7410 -118.0840 86° East 524 603 35,000  Level FlightAware
10:33PM 45.7460 -117.9740 86° East 524 603 35,000  Level FlightAware
10:33PM 45.7520 -117.8490 86° East 525 604 35,000  Level FlightAware
10:34PM 45.7570 -117.7220 87° East 524 603 35,000  Level FlightAware
10:35PM 45.7620 -117.6130 86° East 525 604 35,000  Level FlightAware
10:35PM 45.7670 -117.4880 87° East 527 606 35,000  Level FlightAware
10:36PM 45.7720 -117.3620 87° East 528 608 35,000  Level FlightAware
10:36PM 45.7770 -117.2360 87° East 528 608 35,000  Level FlightAware
10:37PM 45.7820 -117.1270 86° East 528 608 35,000  Level FlightAware
10:38PM 45.7860 -117.0050 87° East 527 606 35,000  Level FlightAware
10:38PM 45.7910 -116.8750 87° East 527 606 35,000  Level FlightAware
10:39PM 45.7950 -116.7490 87° East 529 609 35,000  Level FlightAware
10:39PM 45.7990 -116.6430 87° East 530 610 35,000  Level FlightAware
10:40PM 45.8030 -116.5090 88° East 532 612 35,000  Level FlightAware
10:40PM 45.8070 -116.3910 87° East 532 612 35,000  Level FlightAware
10:41PM 45.8110 -116.2580 87° East 532 612 35,000 60 Level FlightAware
10:42PM 45.8150 -116.1340 87° East 533 613 35,100 840 Climbing FlightAware
10:42PM 45.8180 -116.0190 88° East 529 609 36,000 1,620 Climbing FlightAware
10:43PM 45.8220 -115.8920 87° East 522 601 37,000 780 Climbing FlightAware
10:43PM 45.8250 -115.7690 88° East 521 600 37,000  Level FlightAware
10:44PM 45.8280 -115.6520 88° East 520 598 37,000  Level FlightAware
10:45PM 45.8310 -115.5370 88° East 521 600 37,000  Level FlightAware
10:45PM 45.8340 -115.4110 88° East 523 602 37,000  Level FlightAware
10:46PM 45.8380 -115.2390 88° East 524 603 37,000  Level FlightAware
10:47PM 45.8400 -115.1330 88° East 524 603 37,000  Level FlightAware
10:47PM 45.8430 -115.0260 88° East 524 603 37,000  Level FlightAware
10:48PM 45.8450 -114.9200 88° East 524 603 37,000  Level FlightAware
10:48PM 45.8480 -114.8130 88° East 524 603 37,000  Level FlightAware
10:49PM 45.8510 -114.7070 88° East 524 603 37,000  Level FlightAware
10:50PM 45.8530 -114.6000 88° East 524 603 37,000  Level FlightAware
10:50PM 45.8560 -114.4940 88° East 524 603 37,000  Level FlightAware
10:51PM 45.8580 -114.3870 88° East 524 603 37,000  Level FlightAware
10:51PM 45.8610 -114.2780 88° East 524 603 37,000  Level FlightAware
10:52PM 45.8630 -114.1720 88° East 524 603 37,000  Level FlightAware
10:53PM 45.8660 -114.0650 88° East 524 603 37,000  Level FlightAware
10:53PM 45.8690 -113.9590 88° East 524 603 37,000  Level FlightAware
10:54PM 45.8710 -113.8520 88° East 524 603 37,000  Level FlightAware
10:54PM 45.8740 -113.7460 88° East 524 603 37,000  Level FlightAware
10:55PM 45.8760 -113.6390 88° East 524 603 37,000  Level FlightAware
10:56PM 45.8592 -113.1908 88° East 522 601 37,000  Level Salt Lake Center
10:57PM 45.8611 -112.9786 89° East 528 608 37,000  Level Salt Lake Center
10:58PM 45.8622 -112.7692 89° East 528 608 37,000  Level Salt Lake Center
10:59PM 45.8619 -112.5597 90° East 526 605 37,000  Level Salt Lake Center
11:00PM 45.8611 -112.3078 90° East 526 605 37,000  Level Salt Lake Center
11:01PM 45.8597 -112.1000 90° East 522 601 37,000  Level Salt Lake Center
11:02PM 45.8606 -111.8900 90° East 525 604 37,000  Level Salt Lake Center
11:03PM 45.8608 -111.6800 90° East 527 606 37,000  Level Salt Lake Center
11:04PM 45.8597 -111.4697 90° East 526 605 37,000  Level Salt Lake Center
11:05PM 45.8606 -111.2578 90° East 526 605 37,000  Level Salt Lake Center
11:06PM 45.8583 -111.0303 91° East 533 613 37,000  Level Salt Lake Center
11:07PM 45.8550 -110.8169 91° East 536 617 37,000  Level Salt Lake Center
11:08PM 45.8525 -110.6031 91° East 536 617 37,000  Level Salt Lake Center
11:09PM 45.8481 -110.3872 92° East 529 609 37,000  Level Salt Lake Center
11:10PM 45.8453 -110.1717 91° East 538 619 37,000  Level Salt Lake Center
11:11PM 45.8419 -109.9567 91° East 540 621 37,000  Level Salt Lake Center
11:12PM 45.8389 -109.7422 91° East 539 620 37,000  Level Salt Lake Center
11:13PM 45.8333 -109.5278 92° East 539 620 37,000  Level Salt Lake Center
11:14PM 45.8286 -109.3161 92° East 533 613 37,000  Level Salt Lake Center
11:15PM 45.8225 -109.1053 92° East 530 610 37,000  Level Salt Lake Center
11:16PM 45.8156 -108.8514 92° East 532 612 37,000  Level Salt Lake Center
11:17PM 45.8075 -108.6431 93° East 526 605 37,000  Level Salt Lake Center
11:18PM 45.7914 -108.4300 96° East 534 615 37,100  Climbing Salt Lake Center
11:19PM 45.7653 -108.2206 100° East 527 606 37,000 -60 Descending Salt Lake Center
11:20PM 45.7425 -108.0136 99° East 524 603 37,000  Level Salt Lake Center
11:22PM 45.7192 -107.8053 99° East 528 608 37,000  Level Salt Lake Center
11:23PM 45.6958 -107.5969 99° East 530 610 37,000  Level Salt Lake Center
11:24PM 45.6714 -107.3881 99° East 531 611 37,000  Level Salt Lake Center
11:25PM 45.6469 -107.1794 99° East 531 611 37,000  Level Salt Lake Center
11:26PM 45.6222 -106.9686 99° East 535 616 37,000  Level Salt Lake Center
11:27PM 45.5950 -106.7608 101° East 534 615 37,000  Level Salt Lake Center
11:28PM 45.5664 -106.5122 99° East 531 611 37,000  Level Salt Lake Center
11:29PM 45.5406 -106.3056 100° East 530 610 37,000  Level Salt Lake Center
11:30PM 45.5136 -106.0975 100° East 534 615 37,000  Level Salt Lake Center
11:31PM 45.4792 -105.8936 103° East 532 612 37,000  Level Salt Lake Center
11:32PM 45.4344 -105.6931 108° East 532 612 37,000  Level Salt Lake Center
11:33PM 45.3903 -105.4953 108° East 529 609 37,000  Level Salt Lake Center
11:34PM 45.3453 -105.2961 108° East 529 609 37,000  Level Salt Lake Center
11:35PM 45.3003 -105.0972 108° East 530 610 37,000  Level Salt Lake Center
11:36PM 45.2550 -104.8981 108° East 531 611 37,000  Level Salt Lake Center
11:37PM 45.2097 -104.7000 108° East 531 611 37,000  Level Salt Lake Center
11:38PM 45.1581 -104.4831 109° East 532 612 37,000  Level Salt Lake Center
11:39PM 45.1139 -104.2917 108° East 534 615 37,000  Level Salt Lake Center
11:40PM 45.0608 -104.0703 109° East 532 612 37,000  Level Salt Lake Center
11:41PM 45.0150 -103.8792 109° East 534 615 37,000  Level Salt Lake Center
11:42PM 44.9622 -103.6581 109° East 532 612 37,000  Level Salt Lake Center
11:43PM 44.9167 -103.4689 109° East 533 613 37,000  Level Salt Lake Center
11:44PM 44.8694 -103.2778 109° East 535 616 37,000  Level Salt Lake Center
11:45PM 44.8406 -103.1694 111° Southeast 535 616 37,000  Level Denver Center
11:46PM 44.7831 -102.9342 109° East 533 613 37,000  Level Denver Center
11:47PM 44.7336 -102.7389 110° East 532 612 37,000  Level Denver Center
11:48PM 44.6700 -102.5517 115° Southeast 533 613 37,000  Level Denver Center
11:49PM 44.6036 -102.3717 117° Southeast 526 605 37,000  Level Denver Center
11:50PM 44.5008 -102.2325 136° Southeast 524 603 37,000  Level Denver Center
11:51PM 44.3886 -102.1061 141° Southeast 518 596 37,000  Level Denver Center
11:52PM 44.2719 -101.9922 145° Southeast 517 595 37,000  Level Denver Center
11:53PM 44.1550 -101.8747 144° Southeast 518 596 37,000  Level Denver Center
11:54PM 44.0394 -101.7533 143° Southeast 520 598 37,000  Level Denver Center
11:55PM 43.9497 -101.6589 143° Southeast 516 594 37,000  Level Denver Center
11:55PM 43.8569 -101.5628 143° Southeast 518 596 37,000  Level Minneapolis Center
11:56PM 43.7417 -101.4433 143° Southeast 519 597 37,000  Level Minneapolis Center
11:57PM 43.6736 -101.3736 143° Southeast 520 598 37,000  Level Denver Center
11:57PM 43.6258 -101.3256 144° Southeast 518 596 37,000  Level Minneapolis Center
11:58PM 43.5561 -101.2578 145° Southeast 520 598 37,000  Level Denver Center
11:59PM 43.4436 -101.1356 142° Southeast 518 596 37,000  Level Denver Center
12:00AM 43.3661 -100.9681 122° Southeast 526 605 37,000  Level Denver Center
12:01AM 43.3047 -100.7869 115° Southeast 524 603 37,000  Level Denver Center
12:02AM 43.2439 -100.6036 114° Southeast 525 604 37,000  Level Minneapolis Center
12:03AM 43.1828 -100.4233 115° Southeast 522 601 37,000  Level Minneapolis Center
12:04AM 43.1222 -100.2497 115° Southeast 501 577 37,000  Level Minneapolis Center
12:05AM 43.0628 -100.0797 116° Southeast 497 572 37,100  Climbing Minneapolis Center
12:06AM 43.0033 -99.9100 116° Southeast 496 571 37,000 -60 Descending Minneapolis Center
12:07AM 42.9436 -99.7425 116° Southeast 497 572 37,000  Level Denver Center
12:08AM 42.8800 -99.5650 116° Southeast 514 592 37,000  Level Denver Center
12:09AM 42.8175 -99.3883 116° Southeast 519 597 37,000  Level Minneapolis Center
12:10AM 42.7664 -99.2464 116° Southeast 521 600 37,000  Level Minneapolis Center
12:11AM 42.6889 -99.0333 116° Southeast 523 602 37,000  Level Minneapolis Center
12:12AM 42.6242 -98.8558 116° Southeast 524 603 37,000  Level Minneapolis Center
12:13AM 42.5592 -98.6783 116° Southeast 524 603 37,000  Level Minneapolis Center
12:19AM 42.1680 -97.6360 116° Southeast 515 593 37,000  Level FlightAware
12:19AM 42.1310 -97.5390 117° Southeast 515 593 37,000  Level FlightAware
12:20AM 42.0980 -97.4510 117° Southeast 515 593 37,000  Level FlightAware
12:21AM 42.0540 -97.3400 118° Southeast 514 592 37,000  Level FlightAware
12:21AM 42.0100 -97.2250 117° Southeast 515 593 37,000  Level FlightAware
12:22AM 41.9710 -97.1270 118° Southeast 514 592 37,000  Level FlightAware
12:22AM 41.9300 -97.0210 117° Southeast 513 590 37,000  Level FlightAware
12:23AM 41.8940 -96.9300 118° Southeast 513 590 37,000  Level FlightAware
12:24AM 41.8540 -96.8270 118° Southeast 514 592 37,000  Level FlightAware
12:24AM 41.8060 -96.7060 118° Southeast 515 593 37,000  Level FlightAware
12:25AM 41.7740 -96.6250 118° Southeast 517 595 37,000  Level FlightAware
12:25AM 41.7320 -96.5180 118° Southeast 518 596 37,000  Level FlightAware
12:26AM 41.6890 -96.4110 118° Southeast 518 596 37,000  Level FlightAware
12:27AM 41.6550 -96.3250 118° Southeast 518 596 37,000  Level FlightAware
12:27AM 41.6110 -96.2150 118° Southeast 518 596 37,000  Level FlightAware
12:28AM 41.5730 -96.1200 118° Southeast 517 595 37,000  Level FlightAware
12:28AM 41.5300 -96.0140 118° Southeast 516 594 37,000  Level FlightAware
12:29AM 41.4950 -95.9290 119° Southeast 515 593 37,000  Level FlightAware
12:29AM 41.4550 -95.8290 118° Southeast 514 592 37,000  Level FlightAware
12:30AM 41.4130 -95.7270 119° Southeast 514 592 37,000  Level FlightAware
12:31AM 41.3740 -95.6310 118° Southeast 515 593 37,000  Level FlightAware
12:31AM 41.3360 -95.5400 119° Southeast 515 593 37,000  Level FlightAware
12:32AM 41.2940 -95.4360 118° Southeast 515 593 37,000  Level FlightAware
12:32AM 41.2520 -95.3340 119° Southeast 513 590 37,000  Level FlightAware
12:33AM 41.2150 -95.2460 119° Southeast 512 589 37,000  Level FlightAware
12:34AM 41.1770 -95.1550 119° Southeast 511 588 37,000  Level FlightAware
12:34AM 41.1330 -95.0490 119° Southeast 510 587 37,000  Level FlightAware
12:35AM 41.0920 -94.9510 119° Southeast 509 586 37,000  Level FlightAware
12:35AM 41.0470 -94.8430 119° Southeast 508 585 37,000  Level FlightAware
12:36AM 41.0050 -94.7430 119° Southeast 508 585 37,000  Level FlightAware
12:37AM 40.9740 -94.6710 120° Southeast 509 586 37,000  Level FlightAware
12:37AM 40.9280 -94.5620 119° Southeast 509 586 37,000  Level FlightAware
12:38AM 40.8850 -94.4600 119° Southeast 509 586 37,000  Level FlightAware
12:38AM 40.8380 -94.3510 120° Southeast 507 583 37,000  Level FlightAware
12:39AM 40.7960 -94.2530 119° Southeast 506 582 37,000  Level FlightAware
12:40AM 40.7560 -94.1590 119° Southeast 505 581 37,000  Level FlightAware
12:40AM 40.7170 -94.0700 120° Southeast 505 581 37,000  Level FlightAware
12:41AM 40.6770 -93.9770 120° Southeast 505 581 37,000  Level FlightAware
12:41AM 40.6350 -93.8790 119° Southeast 505 581 37,000  Level FlightAware
12:42AM 40.5790 -93.7510 120° Southeast 504 580 37,000  Level FlightAware
12:43AM 40.5350 -93.6500 120° Southeast 503 579 37,000  Level FlightAware
12:43AM 40.5000 -93.5700 120° Southeast 503 579 37,000  Level FlightAware
12:44AM 40.4620 -93.4840 120° Southeast 503 579 37,000  Level FlightAware
12:45AM 40.4140 -93.3760 120° Southeast 502 578 37,000  Level FlightAware
12:45AM 40.3800 -93.2980 120° Southeast 503 579 37,000  Level FlightAware
12:46AM 40.3360 -93.1980 120° Southeast 504 580 37,000  Level FlightAware
12:46AM 40.2940 -93.1050 121° Southeast 504 580 37,000  Level FlightAware
12:47AM 40.2550 -93.0160 120° Southeast 505 581 37,000  Level FlightAware
12:47AM 40.2120 -92.9210 121° Southeast 506 582 37,000  Level FlightAware
12:48AM 40.1700 -92.8280 121° Southeast 506 582 37,000  Level FlightAware
12:49AM 40.1310 -92.7400 120° Southeast 506 582 37,000  Level FlightAware
12:49AM 40.0860 -92.6420 121° Southeast 506 582 37,000  Level FlightAware
12:50AM 40.0480 -92.5590 121° Southeast 507 583 37,000  Level FlightAware
12:50AM 40.0010 -92.4550 121° Southeast 507 583 37,000  Level FlightAware
12:51AM 39.9640 -92.3740 121° Southeast 507 583 37,000  Level FlightAware
12:52AM 39.9190 -92.2750 121° Southeast 509 586 37,000  Level FlightAware
12:52AM 39.8750 -92.1770 120° Southeast 509 586 37,000  Level FlightAware
12:53AM 39.8300 -92.0820 122° Southeast 511 588 37,000  Level FlightAware
12:53AM 39.7950 -92.0040 120° Southeast 511 588 37,000  Level FlightAware
12:54AM 39.7460 -91.8990 121° Southeast 513 590 37,000  Level FlightAware
12:54AM 39.7060 -91.8130 121° Southeast 513 590 37,000  Level FlightAware
12:55AM 39.6640 -91.7220 121° Southeast 513 590 37,000  Level FlightAware
12:56AM 39.6190 -91.6250 121° Southeast 512 589 37,000  Level FlightAware
12:56AM 39.5810 -91.5390 120° Southeast 510 587 37,000  Level FlightAware
12:57AM 39.5450 -91.4430 116° Southeast 509 586 37,000  Level FlightAware
12:57AM 39.5070 -91.3370 115° Southeast 508 585 37,000  Level FlightAware
12:58AM 39.4770 -91.2490 114° Southeast 508 585 37,000  Level FlightAware
12:59AM 39.4450 -91.1550 114° Southeast 508 585 37,000  Level FlightAware
12:59AM 39.4080 -91.0480 114° Southeast 507 583 37,000  Level FlightAware
01:00AM 39.3740 -90.9490 114° Southeast 506 582 37,000  Level FlightAware
01:00AM 39.3400 -90.8520 114° Southeast 506 582 37,000  Level FlightAware
01:01AM 39.3120 -90.7700 114° Southeast 507 583 37,000  Level FlightAware
01:01AM 39.2760 -90.6680 114° Southeast 509 586 37,000  Level FlightAware
01:02AM 39.2400 -90.5640 114° Southeast 510 587 37,000  Level FlightAware
01:03AM 39.2060 -90.4670 114° Southeast 511 588 37,000  Level FlightAware
01:03AM 39.1730 -90.3750 115° Southeast 511 588 37,000  Level FlightAware
01:04AM 39.1460 -90.2980 114° Southeast 511 588 37,000  Level FlightAware
01:04AM 39.1070 -90.1880 115° Southeast 510 587 37,000  Level FlightAware
01:05AM 39.0680 -90.0780 115° Southeast 510 587 37,000  Level FlightAware
01:06AM 39.0360 -89.9890 115° Southeast 511 588 37,000  Level FlightAware
01:06AM 39.0020 -89.8940 115° Southeast 512 589 37,000  Level FlightAware
01:07AM 38.9630 -89.7860 115° Southeast 512 589 37,000  Level FlightAware
01:07AM 38.9350 -89.7080 115° Southeast 512 589 37,000  Level FlightAware
01:08AM 38.8970 -89.6030 115° Southeast 513 590 37,000  Level FlightAware
01:09AM 38.8620 -89.4970 113° Southeast 510 587 37,000  Level FlightAware
01:09AM 38.8400 -89.4060 107° East 507 583 37,000  Level FlightAware
01:10AM 38.8200 -89.3040 104° East 507 583 37,000  Level FlightAware
01:10AM 38.7980 -89.1990 105° East 508 585 37,000  Level FlightAware
01:11AM 38.7770 -89.0940 104° East 507 583 37,000  Level FlightAware
01:11AM 38.7590 -89.0020 104° East 508 585 37,000  Level FlightAware
01:12AM 38.7370 -88.8960 105° East 507 583 37,000  Level FlightAware
01:13AM 38.7160 -88.7900 104° East 507 583 37,000  Level FlightAware
01:13AM 38.6980 -88.6990 104° East 508 585 37,000  Level FlightAware
01:14AM 38.6760 -88.5930 105° East 510 587 37,000  Level FlightAware
01:14AM 38.6540 -88.4870 105° East 512 589 37,000  Level FlightAware
01:15AM 38.6330 -88.3840 105° East 512 589 37,000  Level FlightAware
01:15AM 38.6120 -88.2810 105° East 512 589 37,000  Level FlightAware
01:16AM 38.5930 -88.1890 105° East 512 589 37,000 -120 Level FlightAware
01:17AM 38.5730 -88.0940 105° East 510 587 36,900 -1,320 Descending FlightAware
01:17AM 38.5480 -87.9730 105° East 498 573 35,400 -2,700 Descending FlightAware
01:18AM 38.5280 -87.8820 106° East 500 575 33,700 -3,180 Descending FlightAware
01:18AM 38.5070 -87.7800 105° East 495 570 31,800 -3,600 Descending FlightAware
01:19AM 38.4850 -87.6790 106° East 486 559 29,400 -4,620 Descending FlightAware
01:20AM 38.4640 -87.5800 105° East 495 570 26,300 -4,620 Descending FlightAware
01:20AM 38.4450 -87.4920 105° East 493 567 24,300 -3,540 Descending FlightAware
01:21AM 38.4240 -87.3920 105° East 480 552 22,400 -3,120 Descending FlightAware
01:21AM 38.4050 -87.3070 106° East 470 541 20,800 -3,000 Descending FlightAware
01:22AM 38.3830 -87.2070 106° East 456 525 18,900 -3,000 Descending FlightAware
01:22AM 38.3630 -87.1140 105° East 442 509 17,100 -3,120 Descending FlightAware
01:23AM 38.3440 -87.0250 105° East 435 501 15,200 -2,580 Descending FlightAware
01:24AM 38.3270 -86.9480 106° East 415 478 14,200 -2,160 Descending FlightAware
01:24AM 38.3090 -86.8670 106° East 403 464 12,800 -2,520 Descending FlightAware
01:25AM 38.2920 -86.7910 106° East 396 456 11,300 -1,740 Descending FlightAware
01:25AM 38.2760 -86.7200 106° East 396 456 10,900 -480 Descending FlightAware
01:26AM 38.2490 -86.5940 105° East 395 455 10,600 -540 Descending FlightAware
01:27AM 38.2300 -86.5080 106° East 390 449 10,100 -780 Descending FlightAware
01:27AM 38.2230 -86.4610 101° East 388 447 9,900 -300 Descending FlightAware
01:28AM 38.2110 -86.3670 99° East 372 428 9,800 -120 Descending FlightAware
01:28AM 38.2050 -86.3220 100° East 335 386 9,800  Level FlightAware
01:29AM 38.2010 -86.2900 99° East 313 360 9,800 -720 Level FlightAware
01:29AM 38.1950 -86.2480 100° East 283 326 9,300 -1,440 Descending FlightAware
01:29AM 38.1900 -86.2110 100° East 284 327 8,700 -1,800 Descending FlightAware
01:30AM 38.1870 -86.1910 101° East 283 326 8,300 -1,740 Descending FlightAware
01:30AM 38.1830 -86.1600 99° East 280 322 7,800 -1,800 Descending FlightAware
01:30AM 38.1780 -86.1200 99° East 280 322 7,000 -1,920 Descending FlightAware
01:31AM 38.1730 -86.0880 101° East 278 320 6,400 -1,740 Descending FlightAware
01:31AM 38.1670 -86.0760 122° Southeast 276 318 6,200 -1,380 Descending FlightAware
01:31AM 38.1600 -86.0630 124° Southeast 274 315 6,000 -1,320 Descending FlightAware
01:31AM 38.1440 -86.0360 127° Southeast 273 314 5,500 -1,320 Descending FlightAware
01:32AM 38.1320 -86.0150 126° Southeast 270 311 5,200 -1,380 Descending FlightAware
01:32AM 38.1160 -85.9880 127° Southeast 268 308 4,700 -1,380 Descending FlightAware
01:32AM 38.1020 -85.9640 127° Southeast 267 307 4,300 -1,320 Descending FlightAware
01:33AM 38.0860 -85.9360 126° Southeast 265 305 3,800 -840 Descending FlightAware
01:33AM 38.0760 -85.9180 125° Southeast 256 295 3,800  Level FlightAware
01:33AM 38.0600 -85.8920 128° Southeast 249 287 3,800  Level FlightAware
01:34AM 38.0480 -85.8710 126° Southeast 235 270 3,800  Level FlightAware
01:34AM 38.0330 -85.8430 124° Southeast 235 270 3,800  Level FlightAware
01:34AM 38.0250 -85.8290 126° Southeast 226 260 3,800  Level FlightAware
01:34AM 38.0140 -85.8090 125° Southeast 225 259 3,800  Level FlightAware
01:35AM 38.0060 -85.7890 117° Southeast 228 262 3,800  Level FlightAware
01:35AM 38.0050 -85.7790 97° East 224 258 3,800 -600 Level FlightAware
01:35AM 38.0080 -85.7630 77° East 222 255 3,600 -900 Descending FlightAware
01:35AM 38.0140 -85.7430 69° East 221 254 3,400 -900 Descending FlightAware
01:35AM 38.0160 -85.7390 58° Northeast 220 253 3,300 -540 Descending FlightAware
01:36AM 38.0210 -85.7330 43° Northeast 214 246 3,300 -420 Level FlightAware
01:36AM 38.0290 -85.7280 26° Northeast 209 241 3,200 -900 Descending FlightAware
01:36AM 38.0460 -85.7220 16° North 193 222 2,900 -1,080 Descending FlightAware
01:36AM 38.0620 -85.7160 16° North 179 206 2,500 -1,500 Descending FlightAware
01:36AM 38.0700 -85.7140 11° North 179 206 2,200 -1,920 Descending FlightAware
01:37AM 38.0760 -85.7140 360° North 175 201 2,000 -1,200 Descending FlightAware
01:37AM 38.0930 -85.7170 352° North 157 181 1,600 -900 Descending FlightAware
01:37AM 38.1000 -85.7200 341° North 153 176 1,500 -780 Descending FlightAware
01:38AM 38.1140 -85.7250 344° North 152 175 1,200 -900 Descending FlightAware
01:38AM 38.1270 -85.7290 346° North 147 169 900 -840 Descending FlightAware
01:38AM 38.1380 -85.7330 344° North 144 166 700 -720 Descending FlightAware
01:38AM 38.1510 -85.7370 346° North 146 168 500 -600 Descending FlightAware